Time;durP1;ratioP1;P1;durP2;ratioP2;P2;SDS_P1;SDS_P2;PMS_P1;PMS_P2;Temp;Humidity;BMP_temperature;BMP_pressure;BME280_temperature;BME280_humidity;BME280_pressure;Samples;Min_cycle;Max_cycle;Signal;HPM_P1;HPM_P2
2023/07/28 00:02:46;;;;;;;4.18;3.58;;;16.60;99.90;;;;;;10562191;28;20201;-88
2023/07/28 00:07:48;;;;;;;3.92;3.50;;;16.70;99.90;;;;;;10580577;28;20277;-88
2023/07/28 00:12:51;;;;;;;5.15;3.60;;;16.70;99.90;;;;;;10579778;28;20574;-88
2023/07/28 00:17:53;;;;;;;3.10;2.80;;;16.80;99.90;;;;;;10561781;28;20253;-88
2023/07/28 00:22:56;;;;;;;7.18;4.53;;;16.90;99.90;;;;;;10561559;28;20663;-87
2023/07/28 00:27:59;;;;;;;4.90;4.38;;;17.00;99.90;;;;;;10579361;28;20225;-88
2023/07/28 00:33:02;;;;;;;5.00;4.50;;;17.00;99.90;;;;;;10580295;28;20185;-88
2023/07/28 00:38:05;;;;;;;7.45;4.63;;;17.00;99.90;;;;;;10561623;28;20551;-88
2023/07/28 00:43:08;;;;;;;5.50;4.30;;;17.00;99.90;;;;;;10544531;28;20262;-88
2023/07/28 00:48:15;;;;;;;4.88;3.55;;;16.90;99.90;;;;;;10579686;28;20209;-88
2023/07/28 00:53:18;;;;;;;4.15;3.47;;;17.00;99.90;;;;;;10544584;28;20254;-88
2023/07/28 00:58:21;;;;;;;3.13;2.80;;;17.00;99.90;;;;;;10563294;28;20258;-88
2023/07/28 01:03:25;;;;;;;4.10;3.17;;;17.00;99.90;;;;;;10569619;28;20201;-88
2023/07/28 01:08:35;;;;;;;4.35;2.63;;;17.00;99.90;;;;;;10587759;28;20625;-87
2023/07/28 01:13:37;;;;;;;4.13;2.88;;;16.90;99.90;;;;;;10587768;28;20197;-87
2023/07/28 01:18:40;;;;;;;3.25;2.95;;;16.90;99.90;;;;;;10569037;28;20200;-87
2023/07/28 01:24:10;;;;;;;5.78;3.28;;;17.00;99.90;;;;;;10587037;28;20188;-88
2023/07/28 01:29:15;;;;;;;5.03;2.63;;;16.90;99.90;;;;;;10587079;28;20578;-88
2023/07/28 01:34:17;;;;;;;5.57;3.25;;;16.80;99.90;;;;;;10567836;28;20262;-87
2023/07/28 01:39:20;;;;;;;3.97;2.88;;;16.80;99.90;;;;;;10568314;28;20238;-88
2023/07/28 01:44:22;;;;;;;3.03;2.65;;;16.70;99.90;;;;;;10551661;28;20265;-87
2023/07/28 01:49:25;;;;;;;5.28;3.05;;;16.80;99.90;;;;;;10568242;28;20225;-88
2023/07/28 01:54:28;;;;;;;3.08;2.40;;;16.70;99.90;;;;;;10586288;28;20197;-88
2023/07/28 01:59:30;;;;;;;4.65;3.00;;;16.70;99.90;;;;;;10567439;28;20253;-88
2023/07/28 02:04:33;;;;;;;3.33;2.70;;;16.80;99.90;;;;;;10567726;28;20205;-87
2023/07/28 02:09:35;;;;;;;3.53;2.10;;;16.80;99.90;;;;;;10565706;28;20229;-88
2023/07/28 02:14:38;;;;;;;3.83;2.95;;;16.70;99.90;;;;;;10584643;28;20197;-87
2023/07/28 02:19:40;;;;;;;3.53;2.75;;;16.70;99.90;;;;;;10566728;28;20226;-88
2023/07/28 02:24:43;;;;;;;2.92;2.72;;;16.70;99.90;;;;;;10584711;28;20246;-88
2023/07/28 02:29:45;;;;;;;3.53;2.88;;;16.60;99.90;;;;;;10566318;28;20247;-88
2023/07/28 02:34:48;;;;;;;3.92;2.88;;;16.60;99.90;;;;;;10566325;28;20197;-88
2023/07/28 02:39:51;;;;;;;3.80;3.00;;;16.60;99.90;;;;;;10565595;28;20216;-88
2023/07/28 02:44:53;;;;;;;5.13;3.00;;;16.70;99.90;;;;;;10584641;28;20218;-88
2023/07/28 02:49:57;;;;;;;3.00;2.78;;;16.60;99.90;;;;;;10565302;28;20225;-87
2023/07/28 02:55:00;;;;;;;5.85;2.78;;;16.60;99.90;;;;;;10564962;28;20262;-87
2023/07/28 03:00:05;;;;;;;3.47;3.08;;;16.60;99.90;;;;;;10565156;28;20205;-87
2023/07/28 03:05:08;;;;;;;3.30;2.95;;;16.60;99.90;;;;;;10564432;28;20205;-88
2023/07/28 03:10:33;;;;;;;3.50;2.38;;;16.70;99.90;;;;;;10572619;28;20250;-87
2023/07/28 03:15:36;;;;;;;3.53;3.22;;;16.60;99.90;;;;;;10566209;28;20201;-88
2023/07/28 03:20:39;;;;;;;3.55;3.20;;;16.60;99.90;;;;;;10564400;28;20270;-88
2023/07/28 03:25:42;;;;;;;3.47;3.17;;;16.50;99.90;;;;;;10546884;28;20209;-87
2023/07/28 03:30:44;;;;;;;3.40;2.67;;;16.40;99.90;;;;;;10563136;28;20261;-87
2023/07/28 03:35:47;;;;;;;5.45;4.22;;;16.50;99.90;;;;;;10562743;28;20204;-87
2023/07/28 03:40:51;;;;;;;4.30;3.90;;;16.50;99.90;;;;;;10562716;28;20234;-88
2023/07/28 03:45:53;;;;;;;4.18;3.58;;;16.50;99.90;;;;;;10581109;28;20246;-88
2023/07/28 03:50:57;;;;;;;3.85;3.20;;;16.50;99.90;;;;;;10562002;28;20254;-88
2023/07/28 03:55:59;;;;;;;4.15;3.08;;;16.60;99.90;;;;;;10561831;28;20204;-88
2023/07/28 04:01:02;;;;;;;4.07;3.65;;;16.50;99.90;;;;;;10561132;28;20249;-88
2023/07/28 04:06:09;;;;;;;3.70;3.20;;;16.60;99.90;;;;;;10580179;28;20256;-87
2023/07/28 04:11:12;;;;;;;3.58;3.28;;;16.70;99.90;;;;;;10579889;28;20217;-87
2023/07/28 04:16:15;;;;;;;2.83;2.63;;;16.70;99.90;;;;;;10561288;28;20558;-88
2023/07/28 04:21:19;;;;;;;3.38;3.08;;;16.80;99.90;;;;;;10561349;28;20205;-88
2023/07/28 04:26:23;;;;;;;4.00;3.60;;;16.90;99.90;;;;;;10544075;28;20209;-88
2023/07/28 04:31:31;;;;;;;4.45;3.70;;;16.90;99.90;;;;;;10544749;28;20220;-88
2023/07/28 04:36:39;;;;;;;4.00;3.70;;;16.90;99.90;;;;;;10560752;28;20205;-88
2023/07/28 04:41:42;;;;;;;4.15;3.80;;;16.90;99.90;;;;;;10561269;28;20205;-88
2023/07/28 04:46:47;;;;;;;3.65;3.35;;;16.90;99.90;;;;;;10544106;28;20571;-87
2023/07/28 04:51:50;;;;;;;3.95;3.33;;;16.90;99.90;;;;;;10560133;28;20228;-88
2023/07/28 04:57:17;;;;;;;4.70;3.70;;;17.00;99.90;;;;;;10568138;28;20756;-88
2023/07/28 05:02:20;;;;;;;7.25;5.03;;;17.00;99.90;;;;;;10560284;28;20201;-88
2023/07/28 05:07:23;;;;;;;4.22;3.90;;;17.00;99.90;;;;;;10559821;28;20221;-88
2023/07/28 05:12:25;;;;;;;4.50;3.97;;;17.00;99.90;;;;;;10560222;28;20274;-87
2023/07/28 05:17:28;;;;;;;4.15;3.25;;;17.10;99.90;;;;;;10560592;28;20222;-87
2023/07/28 05:22:49;;;;;;;3.92;3.55;;;17.20;99.90;;;;;;10559928;28;20209;-87
2023/07/28 05:27:52;;;;;;;3.10;2.60;;;17.30;99.90;;;;;;10559849;28;20286;-87
2023/07/28 05:32:55;;;;;;;5.60;5.10;;;17.50;99.90;;;;;;10542827;28;20636;-87
2023/07/28 05:38:16;;;;;;;4.03;3.72;;;17.60;99.90;;;;;;10579863;28;20196;-88
2023/07/28 05:43:19;;;;;;;4.22;3.83;;;17.70;99.90;;;;;;10578512;28;20201;-88
2023/07/28 05:48:23;;;;;;;3.45;3.08;;;17.70;99.90;;;;;;10567249;28;20204;-87
2023/07/28 05:53:26;;;;;;;4.55;4.10;;;17.70;99.90;;;;;;10567258;28;20273;-87
2023/07/28 05:58:35;;;;;;;4.88;4.35;;;17.70;99.90;;;;;;10566979;28;20212;-87
2023/07/28 06:03:38;;;;;;;4.35;4.03;;;17.80;99.90;;;;;;10566582;28;20573;-87
2023/07/28 06:08:47;;;;;;;4.20;3.83;;;17.80;99.90;;;;;;10565481;28;20278;-88
2023/07/28 06:13:50;;;;;;;5.00;4.60;;;17.80;99.90;;;;;;10566103;28;20258;-88
2023/07/28 06:18:52;;;;;;;3.78;3.47;;;17.80;99.90;;;;;;10565523;28;20254;-87
2023/07/28 06:23:58;;;;;;;3.97;3.67;;;17.80;99.90;;;;;;10565864;28;20262;-87
2023/07/28 06:29:00;;;;;;;10.02;3.83;;;17.90;99.90;;;;;;10565242;28;20201;-87
2023/07/28 06:34:03;;;;;;;3.63;3.03;;;18.00;99.90;;;;;;10565101;28;20200;-87
2023/07/28 06:39:06;;;;;;;2.55;2.35;;;18.10;99.90;;;;;;10583464;28;20197;-88
2023/07/28 06:44:09;;;;;;;3.65;2.85;;;18.10;99.90;;;;;;10548151;28;20201;-87
2023/07/28 06:49:12;;;;;;;2.95;2.55;;;18.10;99.90;;;;;;10564635;28;20201;-87
2023/07/28 06:54:15;;;;;;;1.90;1.80;;;18.20;99.90;;;;;;10564171;28;20205;-87
2023/07/28 06:59:17;;;;;;;1.98;1.88;;;18.20;99.90;;;;;;10563677;28;20254;-87
2023/07/28 07:04:24;;;;;;;1.60;1.50;;;18.30;99.90;;;;;;10564346;28;20197;-87
2023/07/28 07:09:27;;;;;;;1.70;1.60;;;18.30;99.90;;;;;;10563543;28;20229;-87
2023/07/28 07:14:29;;;;;;;3.28;1.80;;;18.50;99.90;;;;;;10546937;28;20253;-87
2023/07/28 07:19:32;;;;;;;1.95;1.83;;;18.80;99.90;;;;;;10564004;28;20193;-88
2023/07/28 07:24:34;;;;;;;5.65;1.90;;;19.00;99.90;;;;;;10581863;28;20257;-87
2023/07/28 07:29:40;;;;;;;1.45;1.35;;;19.20;99.90;;;;;;10581845;28;20551;-88
2023/07/28 07:34:42;;;;;;;1.63;1.38;;;19.10;99.90;;;;;;10580525;28;20205;-87
2023/07/28 07:39:46;;;;;;;1.88;1.77;;;19.20;99.90;;;;;;10580872;28;20243;-87
2023/07/28 07:44:49;;;;;;;7.07;1.30;;;19.30;99.90;;;;;;10580487;28;20201;-87
2023/07/28 07:49:51;;;;;;;2.08;1.88;;;19.30;99.90;;;;;;10562076;28;20242;-87
2023/07/28 07:54:54;;;;;;;1.35;1.25;;;19.40;99.90;;;;;;10580502;28;20608;-87
2023/07/28 07:59:57;;;;;;;1.55;1.27;;;19.70;99.90;;;;;;10579998;28;20261;-87
2023/07/28 08:05:00;;;;;;;1.33;1.23;;;19.80;99.00;;;;;;10580163;28;20558;-87
2023/07/28 08:10:03;;;;;;;1.67;1.58;;;19.90;95.00;;;;;;10578964;28;20273;-87
2023/07/28 08:15:06;;;;;;;1.10;1.00;;;20.00;95.70;;;;;;10571475;28;20189;-87
2023/07/28 08:20:09;;;;;;;2.08;1.50;;;20.10;96.30;;;;;;10579400;28;20205;-87
2023/07/28 08:25:11;;;;;;;4.78;1.75;;;20.10;96.40;;;;;;10579605;28;20246;-87
2023/07/28 08:30:15;;;;;;;1.73;1.63;;;20.30;95.30;;;;;;10544598;28;20579;-87
2023/07/28 08:35:18;;;;;;;1.65;1.40;;;20.50;91.60;;;;;;10579897;28;20193;-87
2023/07/28 08:40:20;;;;;;;2.13;1.92;;;20.60;91.40;;;;;;10579369;28;20197;-87
2023/07/28 08:45:24;;;;;;;1.60;1.50;;;20.90;93.80;;;;;;10578442;28;20201;-87
2023/07/28 08:50:26;;;;;;;3.30;1.60;;;21.00;88.50;;;;;;10579142;28;20221;-87
2023/07/28 08:55:29;;;;;;;2.15;1.95;;;21.00;89.10;;;;;;10578266;28;20632;-87
2023/07/28 09:00:31;;;;;;;1.58;1.48;;;21.00;88.40;;;;;;10560565;28;20254;-87
2023/07/28 09:05:34;;;;;;;1.60;1.50;;;21.10;85.60;;;;;;10560107;28;20227;-87
2023/07/28 09:10:49;;;;;;;3.80;1.60;;;21.30;92.10;;;;;;10577921;28;20269;-87
2023/07/28 09:15:52;;;;;;;1.85;1.65;;;21.40;88.30;;;;;;10578992;28;20226;-88
2023/07/28 09:20:54;;;;;;;1.73;1.60;;;21.70;87.40;;;;;;10564704;28;20254;-87
2023/07/28 09:26:05;;;;;;;1.65;1.55;;;21.70;87.90;;;;;;10587180;28;20247;-87
2023/07/28 09:31:10;;;;;;;1.95;1.63;;;21.70;86.60;;;;;;10587276;28;20208;-87
2023/07/28 09:36:17;;;;;;;1.50;1.40;;;21.60;92.90;;;;;;10587020;28;20574;-87
2023/07/28 09:41:21;;;;;;;1.73;1.63;;;21.60;85.00;;;;;;10568141;28;20200;-87
2023/07/28 09:46:25;;;;;;;4.03;2.13;;;21.80;86.40;;;;;;10568411;28;20227;-88
2023/07/28 09:51:31;;;;;;;2.35;1.80;;;22.10;96.70;;;;;;10586049;28;20645;-88
2023/07/28 09:56:37;;;;;;;1.83;1.50;;;22.10;91.30;;;;;;10585045;28;20200;-87
2023/07/28 10:01:41;;;;;;;1.65;1.45;;;22.20;84.20;;;;;;10584616;28;20204;-88
2023/07/28 10:06:44;;;;;;;1.50;1.40;;;22.20;92.70;;;;;;10585741;28;20221;-87
2023/07/28 10:11:47;;;;;;;1.70;1.60;;;22.40;78.30;;;;;;10584987;28;20209;-88
2023/07/28 10:16:50;;;;;;;1.95;1.83;;;22.50;76.00;;;;;;10585232;28;20238;-88
2023/07/28 10:22:00;;;;;;;1.67;1.58;;;22.50;78.10;;;;;;10584663;28;20248;-88
2023/07/28 10:27:03;;;;;;;1.35;1.25;;;22.50;85.10;;;;;;10566559;28;20523;-88
2023/07/28 10:32:06;;;;;;;1.52;1.42;;;22.70;79.90;;;;;;10582405;28;20221;-88
2023/07/28 10:37:08;;;;;;;1.48;1.30;;;22.50;80.00;;;;;;10566236;28;20261;-87
2023/07/28 10:42:10;;;;;;;2.55;1.50;;;22.40;93.00;;;;;;10565597;28;20201;-87
2023/07/28 10:47:13;;;;;;;1.52;1.42;;;22.10;85.40;;;;;;10582770;28;20209;-87
2023/07/28 10:52:16;;;;;;;1.70;1.50;;;21.70;84.90;;;;;;10583409;28;20217;-87
2023/07/28 10:57:19;;;;;;;1.92;1.55;;;21.60;89.50;;;;;;10564941;28;20202;-87
2023/07/28 11:02:21;;;;;;;1.90;1.67;;;21.50;92.80;;;;;;10564957;28;20332;-87
2023/07/28 11:07:24;;;;;;;1.70;1.60;;;22.10;91.10;;;;;;10564272;28;20719;-87
2023/07/28 11:12:26;;;;;;;2.20;2.00;;;22.10;93.40;;;;;;10581666;28;20594;-88
2023/07/28 11:17:29;;;;;;;4.07;1.88;;;21.90;96.10;;;;;;10581338;28;20212;-87
2023/07/28 11:22:36;;;;;;;2.10;2.00;;;21.90;93.40;;;;;;10582468;28;20550;-88
2023/07/28 11:27:39;;;;;;;2.00;1.70;;;22.20;94.70;;;;;;10563179;28;20208;-88
2023/07/28 11:32:50;;;;;;;1.60;1.50;;;22.30;81.50;;;;;;10563549;28;20274;-88
2023/07/28 11:37:54;;;;;;;1.63;1.52;;;22.20;84.60;;;;;;10582573;28;20201;-88
2023/07/28 11:42:57;;;;;;;1.80;1.63;;;22.30;93.70;;;;;;10581373;28;20201;-87
2023/07/28 11:48:03;;;;;;;1.60;1.50;;;22.40;93.60;;;;;;10581236;28;20257;-88
2023/07/28 11:53:06;;;;;;;3.53;1.80;;;22.60;95.10;;;;;;10579842;28;20274;-88
2023/07/28 11:58:11;;;;;;;1.50;1.40;;;22.50;80.60;;;;;;10562356;28;20230;-88
2023/07/28 12:03:14;;;;;;;1.88;1.77;;;22.40;92.40;;;;;;10580120;28;20612;-88
2023/07/28 12:08:34;;;;;;;1.60;1.50;;;22.30;83.20;;;;;;10580649;28;20641;-88
2023/07/28 12:13:47;;;;;;;2.50;1.70;;;22.10;90.50;;;;;;10579625;28;20687;-87
2023/07/28 12:18:58;;;;;;;1.83;1.73;;;22.00;90.50;;;;;;10545827;28;20261;-87
2023/07/28 12:24:00;;;;;;;3.28;1.90;;;21.80;93.40;;;;;;10579233;28;20566;-87
2023/07/28 12:29:06;;;;;;;1.70;1.60;;;21.70;93.30;;;;;;10579884;28;20672;-87
2023/07/28 12:34:11;;;;;;;3.47;2.28;;;21.50;98.20;;;;;;10578783;28;20572;-88
2023/07/28 12:39:27;;;;;;;3.70;2.05;;;21.30;99.70;;;;;;10579578;28;20200;-88
2023/07/28 12:44:32;;;;;;;3.80;2.22;;;20.90;99.90;;;;;;10579583;28;20192;-87
2023/07/28 12:49:37;;;;;;;2.65;2.45;;;20.60;99.90;;;;;;10544828;28;20200;-88
2023/07/28 12:54:42;;;;;;;6.93;2.97;;;20.20;99.90;;;;;;10581856;28;20212;-87
2023/07/28 12:59:45;;;;;;;2.15;1.70;;;19.90;99.90;;;;;;10588153;28;20242;-88
2023/07/28 13:04:51;;;;;;;1.55;1.45;;;19.70;99.90;;;;;;10587497;28;20222;-87
2023/07/28 13:09:53;;;;;;;1.77;1.60;;;19.60;99.90;;;;;;10586701;28;20228;-88
2023/07/28 13:14:56;;;;;;;1.50;1.40;;;19.80;99.90;;;;;;10569097;28;20213;-88
2023/07/28 13:19:59;;;;;;;1.25;1.15;;;19.90;99.90;;;;;;10586733;28;20196;-88
2023/07/28 13:25:04;;;;;;;2.75;1.75;;;19.80;99.90;;;;;;10568206;28;20204;-88
2023/07/28 13:30:07;;;;;;;2.00;1.80;;;19.80;99.90;;;;;;10585941;28;20577;-88
2023/07/28 13:35:10;;;;;;;1.77;1.67;;;19.80;99.90;;;;;;10585354;28;20237;-88
2023/07/28 13:40:12;;;;;;;1.35;1.25;;;19.80;99.90;;;;;;10585864;28;20569;-88
2023/07/28 13:45:15;;;;;;;2.13;1.92;;;20.00;99.90;;;;;;10586043;28;20204;-88
2023/07/28 13:50:17;;;;;;;1.77;1.67;;;20.20;99.90;;;;;;10585765;28;20552;-88
2023/07/28 13:55:20;;;;;;;2.47;2.05;;;20.50;99.50;;;;;;10585592;28;20624;-88
2023/07/28 14:00:42;;;;;;;2.42;1.60;;;20.80;97.20;;;;;;10567109;28;20196;-88
2023/07/28 14:05:46;;;;;;;2.03;1.73;;;21.20;99.90;;;;;;10566673;28;20233;-88
2023/07/28 14:10:49;;;;;;;5.40;1.60;;;21.30;94.70;;;;;;10567125;28;20558;-88
2023/07/28 14:15:51;;;;;;;1.73;1.58;;;21.50;98.50;;;;;;10585210;28;20605;-88
2023/07/28 14:20:54;;;;;;;1.65;1.55;;;21.80;92.50;;;;;;10584118;28;20197;-88
2023/07/28 14:25:57;;;;;;;1.60;1.50;;;22.10;91.80;;;;;;10565888;28;20205;-88
2023/07/28 14:31:00;;;;;;;1.83;1.73;;;22.30;93.50;;;;;;10565692;28;20736;-88
2023/07/28 14:36:03;;;;;;;5.30;1.40;;;22.10;92.70;;;;;;10582872;28;20193;-88
2023/07/28 14:41:05;;;;;;;1.70;1.60;;;22.00;99.10;;;;;;10583708;28;20201;-87
2023/07/28 14:46:08;;;;;;;1.95;1.85;;;21.80;95.00;;;;;;10583859;28;20544;-87
2023/07/28 14:51:11;;;;;;;2.88;1.80;;;21.60;96.00;;;;;;10582501;28;20326;-87
2023/07/28 14:56:14;;;;;;;1.10;1.00;;;21.50;96.80;;;;;;10582559;28;20204;-87
2023/07/28 15:01:17;;;;;;;2.42;1.52;;;21.30;98.30;;;;;;10582046;28;20235;-87
2023/07/28 15:06:20;;;;;;;1.60;1.50;;;21.20;97.00;;;;;;10581868;28;20233;-87
2023/07/28 15:11:24;;;;;;;3.83;2.25;;;21.30;94.10;;;;;;10581601;28;20217;-87
2023/07/28 15:16:26;;;;;;;2.95;1.70;;;21.50;92.60;;;;;;10581753;28;20200;-87
2023/07/28 15:21:29;;;;;;;1.55;1.45;;;21.50;92.90;;;;;;10582330;28;20601;-87
2023/07/28 15:26:35;;;;;;;2.17;1.58;;;21.40;92.60;;;;;;10582024;28;20253;-87
2023/07/28 15:31:38;;;;;;;1.55;1.10;;;21.40;93.10;;;;;;10582088;28;20212;-88
2023/07/28 15:36:40;;;;;;;1.63;1.52;;;21.30;97.00;;;;;;10563676;28;20189;-87
2023/07/28 15:41:46;;;;;;;1.58;1.48;;;21.20;95.40;;;;;;10581425;28;20246;-88
2023/07/28 15:46:51;;;;;;;2.15;1.63;;;21.20;94.90;;;;;;10582176;28;20230;-88
2023/07/28 15:51:53;;;;;;;1.42;1.33;;;21.20;94.80;;;;;;10545478;28;20594;-88
2023/07/28 15:56:56;;;;;;;1.20;1.10;;;21.30;94.70;;;;;;10580031;28;20209;-87
2023/07/28 16:01:58;;;;;;;1.42;1.33;;;21.50;96.90;;;;;;10562824;28;20189;-88
2023/07/28 16:07:01;;;;;;;2.33;1.08;;;21.60;93.10;;;;;;10579915;28;20289;-87
2023/07/28 16:12:06;;;;;;;1.60;1.50;;;21.60;94.60;;;;;;10563086;28;20209;-88
2023/07/28 16:17:09;;;;;;;3.30;1.83;;;21.70;92.80;;;;;;10580957;28;20246;-88
2023/07/28 16:22:11;;;;;;;1.65;1.55;;;21.80;91.40;;;;;;10580865;28;20196;-88
2023/07/28 16:27:14;;;;;;;1.75;1.33;;;21.90;90.90;;;;;;10580178;28;20204;-88
2023/07/28 16:32:17;;;;;;;1.55;1.17;;;21.90;97.10;;;;;;10579139;28;20238;-88
2023/07/28 16:37:19;;;;;;;1.13;1.10;;;22.10;91.10;;;;;;10561695;28;20658;-88
2023/07/28 16:42:22;;;;;;;1.08;1.00;;;22.20;90.40;;;;;;10580360;28;20753;-88
2023/07/28 16:47:24;;;;;;;2.25;1.50;;;22.30;91.70;;;;;;10579276;28;20277;-88
2023/07/28 16:52:27;;;;;;;1.88;1.40;;;22.50;82.60;;;;;;10579425;28;20277;-88
2023/07/28 16:57:29;;;;;;;1.75;1.52;;;22.50;85.90;;;;;;10578590;28;20231;-88
2023/07/28 17:02:32;;;;;;;3.55;1.38;;;22.60;86.70;;;;;;10579998;28;20249;-88
2023/07/28 17:07:34;;;;;;;1.10;1.00;;;22.60;84.80;;;;;;10561120;28;20240;-88
2023/07/28 17:12:37;;;;;;;1.30;1.20;;;22.50;84.50;;;;;;10579811;28;20212;-88
2023/07/28 17:17:39;;;;;;;1.75;1.30;;;22.40;88.40;;;;;;10579683;28;20209;-88
2023/07/28 17:22:42;;;;;;;1.23;1.13;;;22.40;85.20;;;;;;10562015;28;20271;-88
2023/07/28 17:27:44;;;;;;;1.58;1.48;;;22.40;84.20;;;;;;10560697;28;20201;-88
2023/07/28 17:32:47;;;;;;;2.38;1.60;;;22.30;84.50;;;;;;10561070;28;20274;-88
2023/07/28 17:37:50;;;;;;;1.30;1.20;;;22.20;90.50;;;;;;10578472;28;20197;-87
2023/07/28 17:42:53;;;;;;;1.20;1.10;;;22.00;90.50;;;;;;10584147;28;20208;-88
2023/07/28 17:47:55;;;;;;;1.30;0.93;;;21.90;91.50;;;;;;10586223;28;20540;-88
2023/07/28 17:52:58;;;;;;;2.38;1.10;;;21.80;94.10;;;;;;10585476;28;20258;-88
2023/07/28 17:58:01;;;;;;;1.20;1.10;;;21.70;90.40;;;;;;10586291;28;20651;-88
2023/07/28 18:03:05;;;;;;;1.55;1.45;;;;;;;;;;10585329;28;20222;-88
2023/07/28 18:08:13;;;;;;;1.77;1.50;;;;;;;;;;10585981;28;20291;-88
2023/07/28 18:13:16;;;;;;;1.60;1.50;;;21.20;99.90;;;;;;10586051;28;20246;-88
2023/07/28 18:18:18;;;;;;;2.03;1.80;;;21.10;95.80;;;;;;10586158;28;20189;-88
2023/07/28 18:23:21;;;;;;;2.63;1.30;;;20.90;96.60;;;;;;10584530;28;20205;-88
2023/07/28 18:28:24;;;;;;;1.40;1.30;;;20.80;97.00;;;;;;10585467;28;20222;-88
2023/07/28 18:33:27;;;;;;;3.22;1.33;;;20.70;96.30;;;;;;10566948;28;20218;-88
2023/07/28 18:38:32;;;;;;;1.20;1.10;;;20.50;98.90;;;;;;10584226;28;20196;-87
2023/07/28 18:43:35;;;;;;;8.50;1.70;;;20.30;99.90;;;;;;10566320;28;20205;-88
2023/07/28 18:48:37;;;;;;;3.53;1.60;;;20.10;99.90;;;;;;10584680;28;20193;-88
2023/07/28 18:53:40;;;;;;;2.28;1.63;;;19.90;99.90;;;;;;10565456;28;20209;-87
2023/07/28 18:58:42;;;;;;;2.20;1.88;;;19.80;99.90;;;;;;10584535;28;20250;-88
2023/07/28 19:03:45;;;;;;;1.85;1.75;;;19.70;99.90;;;;;;10565078;28;20262;-87
2023/07/28 19:08:52;;;;;;;1.85;1.75;;;19.50;99.90;;;;;;10564627;28;20636;-88
2023/07/28 19:13:55;;;;;;;2.55;1.70;;;19.40;99.90;;;;;;10565436;28;20582;-88
2023/07/28 19:18:58;;;;;;;2.72;2.42;;;19.40;99.90;;;;;;10565333;28;20268;-88
2023/07/28 19:24:01;;;;;;;5.35;2.50;;;19.40;99.90;;;;;;10547770;28;20209;-88
2023/07/28 19:29:06;;;;;;;2.70;2.47;;;19.40;99.90;;;;;;10564018;28;20213;-88
2023/07/28 19:34:09;;;;;;;3.40;1.95;;;19.30;99.90;;;;;;10582738;28;20209;-88
2023/07/28 19:39:11;;;;;;;2.67;1.77;;;19.30;99.90;;;;;;10582140;28;20540;-87
2023/07/28 19:44:14;;;;;;;1.55;1.45;;;19.20;99.90;;;;;;10563459;28;20304;-88
2023/07/28 19:49:26;;;;;;;1.58;1.48;;;19.20;99.90;;;;;;10563812;28;20209;-88
2023/07/28 19:54:30;;;;;;;3.08;1.45;;;19.20;99.90;;;;;;10582108;28;20208;-87
2023/07/28 19:59:32;;;;;;;3.38;1.83;;;19.20;99.90;;;;;;10585434;28;20250;-88
2023/07/28 20:04:35;;;;;;;2.72;1.95;;;19.20;99.90;;;;;;10563302;28;20607;-87
2023/07/28 20:09:37;;;;;;;2.13;1.90;;;19.10;99.90;;;;;;10580100;28;20228;-88
2023/07/28 20:14:40;;;;;;;3.88;2.33;;;19.10;99.90;;;;;;10561770;28;20253;-87
2023/07/28 20:19:44;;;;;;;2.28;2.08;;;19.00;99.90;;;;;;10563124;28;20601;-88
2023/07/28 20:24:47;;;;;;;3.83;2.10;;;18.80;99.90;;;;;;10579695;28;20704;-88
2023/07/28 20:29:50;;;;;;;1.40;1.27;;;18.80;99.90;;;;;;10579670;28;20205;-88
2023/07/28 20:34:53;;;;;;;2.33;1.67;;;18.70;99.90;;;;;;10580686;28;20209;-88
2023/07/28 20:39:55;;;;;;;2.13;1.92;;;18.60;99.90;;;;;;10579553;28;20254;-88
2023/07/28 20:44:58;;;;;;;4.03;1.83;;;18.40;99.90;;;;;;10563072;28;20250;-88
2023/07/28 20:50:01;;;;;;;4.40;1.98;;;18.40;99.90;;;;;;10563158;28;20756;-88
2023/07/28 20:55:04;;;;;;;2.28;2.08;;;18.30;99.90;;;;;;10580021;28;20224;-88
2023/07/28 21:00:07;;;;;;;3.60;2.90;;;18.20;99.90;;;;;;10579648;28;20197;-88
2023/07/28 21:05:10;;;;;;;3.45;2.42;;;18.10;99.90;;;;;;10561628;28;20547;-88
2023/07/28 21:10:12;;;;;;;4.03;2.60;;;17.90;99.90;;;;;;10560428;28;20232;-88
2023/07/28 21:15:15;;;;;;;2.40;2.20;;;17.70;99.90;;;;;;10580296;28;20755;-87
2023/07/28 21:20:18;;;;;;;2.38;2.17;;;17.60;99.90;;;;;;10587132;28;20204;-87
2023/07/28 21:25:20;;;;;;;3.92;2.53;;;17.50;99.90;;;;;;10568510;28;20571;-87
2023/07/28 21:30:23;;;;;;;2.90;2.28;;;17.40;99.90;;;;;;10568775;28;20560;-88
2023/07/28 21:35:25;;;;;;;4.57;2.10;;;17.40;99.90;;;;;;10567724;28;20221;-88
2023/07/28 21:40:28;;;;;;;2.15;1.85;;;17.30;99.90;;;;;;10585846;28;20209;-88
2023/07/28 21:45:30;;;;;;;3.13;2.92;;;17.20;99.90;;;;;;10584826;28;20209;-88
2023/07/28 21:50:33;;;;;;;3.70;2.33;;;17.10;99.90;;;;;;10567186;28;20205;-88
2023/07/28 21:55:36;;;;;;;3.97;2.88;;;17.00;99.90;;;;;;10568405;28;20270;-87
2023/07/28 22:00:38;;;;;;;2.72;2.53;;;16.90;99.90;;;;;;10586292;28;20218;-88
2023/07/28 22:05:41;;;;;;;6.13;3.83;;;16.80;99.90;;;;;;10585961;28;20276;-87
2023/07/28 22:10:43;;;;;;;3.83;3.05;;;16.90;99.90;;;;;;10585554;28;20250;-87
2023/07/28 22:15:46;;;;;;;4.82;2.83;;;17.00;99.90;;;;;;10584354;28;20225;-88
2023/07/28 22:20:49;;;;;;;5.55;2.88;;;17.10;99.90;;;;;;10567425;28;20218;-88
2023/07/28 22:25:52;;;;;;;2.63;2.42;;;17.20;99.90;;;;;;10584132;28;20205;-88
2023/07/28 22:30:54;;;;;;;8.82;2.47;;;17.20;99.90;;;;;;10584334;28;20197;-87
2023/07/28 22:35:57;;;;;;;3.38;2.70;;;17.10;99.90;;;;;;10583814;28;20221;-88
2023/07/28 22:41:00;;;;;;;8.40;4.13;;;17.10;99.90;;;;;;10584283;28;20201;-87
2023/07/28 22:46:02;;;;;;;6.30;3.38;;;17.10;99.90;;;;;;10584704;28;20562;-88
2023/07/28 22:51:05;;;;;;;4.10;3.00;;;17.00;99.90;;;;;;10565418;28;20205;-87
2023/07/28 22:56:07;;;;;;;8.00;3.03;;;16.90;99.90;;;;;;10583460;28;20213;-87
2023/07/28 23:01:10;;;;;;;2.60;2.40;;;17.00;99.90;;;;;;10564484;28;20795;-88
2023/07/28 23:06:12;;;;;;;3.78;2.17;;;17.00;99.90;;;;;;10547603;28;20565;-88
2023/07/28 23:11:15;;;;;;;3.22;2.58;;;17.00;99.90;;;;;;10583269;28;20200;-88
2023/07/28 23:16:17;;;;;;;3.10;2.80;;;17.00;99.90;;;;;;10582746;28;20617;-88
2023/07/28 23:21:20;;;;;;;2.38;2.22;;;16.90;99.90;;;;;;10582821;28;20270;-88
2023/07/28 23:26:22;;;;;;;2.42;2.22;;;16.80;99.90;;;;;;10582132;28;20530;-88
2023/07/28 23:31:27;;;;;;;5.97;2.92;;;16.80;99.90;;;;;;10564348;28;20257;-87
2023/07/28 23:36:32;;;;;;;3.45;3.10;;;16.80;99.90;;;;;;10582233;28;20568;-88
2023/07/28 23:41:35;;;;;;;7.32;3.40;;;16.80;99.90;;;;;;10580685;28;20541;-88
2023/07/28 23:46:38;;;;;;;3.70;3.30;;;16.80;99.90;;;;;;10581762;28;20201;-87
2023/07/28 23:51:41;;;;;;;3.67;3.38;;;16.80;99.90;;;;;;10580656;28;20204;-87
2023/07/28 23:56:43;;;;;;;5.03;3.38;;;16.80;99.90;;;;;;10581485;28;20275;-88
